sensor_id;sensor_type;location;lat;lon;timestamp;P1;durP1;ratioP1;P2;durP2;ratioP2
24663;SDS011;12791;50.992;13.788;2024-03-29T05:00:48;1.45;;;1.17;;
24663;SDS011;12791;50.992;13.788;2024-03-29T05:03:15;2.33;;;1.02;;
24663;SDS011;12791;50.992;13.788;2024-03-29T05:05:43;3.33;;;1.23;;
24663;SDS011;12791;50.992;13.788;2024-03-29T05:08:09;1.77;;;1.00;;
24663;SDS011;12791;50.992;13.788;2024-03-29T05:10:36;1.02;;;0.90;;
24663;SDS011;12791;50.992;13.788;2024-03-29T05:13:03;1.30;;;0.80;;
24663;SDS011;12791;50.992;13.788;2024-03-29T05:15:30;1.42;;;0.80;;
24663;SDS011;12791;50.992;13.788;2024-03-29T05:17:58;1.70;;;0.70;;
24663;SDS011;12791;50.992;13.788;2024-03-29T05:20:25;1.25;;;0.85;;
24663;SDS011;12791;50.992;13.788;2024-03-29T05:22:52;1.55;;;0.82;;
24663;SDS011;12791;50.992;13.788;2024-03-29T05:25:19;2.70;;;1.02;;
24663;SDS011;12791;50.992;13.788;2024-03-29T05:27:45;0.98;;;0.57;;
24663;SDS011;12791;50.992;13.788;2024-03-29T05:30:12;1.48;;;0.80;;
24663;SDS011;12791;50.992;13.788;2024-03-29T05:32:39;2.63;;;0.73;;
24663;SDS011;12791;50.992;13.788;2024-03-29T05:35:07;2.70;;;0.50;;
24663;SDS011;12791;50.992;13.788;2024-03-29T05:37:35;4.07;;;0.60;;
24663;SDS011;12791;50.992;13.788;2024-03-29T05:40:01;0.80;;;0.57;;
24663;SDS011;12791;50.992;13.788;2024-03-29T05:42:31;1.17;;;0.65;;
24663;SDS011;12791;50.992;13.788;2024-03-29T05:44:59;0.60;;;0.60;;
24663;SDS011;12791;50.992;13.788;2024-03-29T05:47:26;2.15;;;0.70;;
24663;SDS011;12791;50.992;13.788;2024-03-29T05:49:53;1.63;;;0.70;;
24663;SDS011;12791;50.992;13.788;2024-03-29T05:52:21;1.42;;;0.70;;
24663;SDS011;12791;50.992;13.788;2024-03-29T05:54:48;2.05;;;0.95;;
24663;SDS011;12791;50.992;13.788;2024-03-29T05:57:15;3.00;;;0.77;;
24663;SDS011;12791;50.992;13.788;2024-03-29T05:59:42;1.40;;;0.60;;
24663;SDS011;12791;50.992;13.788;2024-03-29T06:02:08;0.93;;;0.70;;
24663;SDS011;12791;50.992;13.788;2024-03-29T06:04:35;1.50;;;0.65;;
24663;SDS011;12791;50.992;13.788;2024-03-29T06:07:03;1.05;;;0.60;;
24663;SDS011;12791;50.992;13.788;2024-03-29T06:09:31;0.90;;;0.60;;
24663;SDS011;12791;50.992;13.788;2024-03-29T06:11:59;1.92;;;0.70;;
24663;SDS011;12791;50.992;13.788;2024-03-29T06:14:26;2.65;;;0.65;;
24663;SDS011;12791;50.992;13.788;2024-03-29T06:17:10;0.88;;;0.60;;
24663;SDS011;12791;50.992;13.788;2024-03-29T06:19:49;2.65;;;0.75;;
24663;SDS011;12791;50.992;13.788;2024-03-29T06:22:16;1.55;;;0.60;;
24663;SDS011;12791;50.992;13.788;2024-03-29T06:24:44;3.20;;;1.33;;
24663;SDS011;12791;50.992;13.788;2024-03-29T06:27:11;3.50;;;1.05;;
24663;SDS011;12791;50.992;13.788;2024-03-29T06:29:41;2.20;;;0.90;;
24663;SDS011;12791;50.992;13.788;2024-03-29T06:32:08;1.58;;;0.80;;
24663;SDS011;12791;50.992;13.788;2024-03-29T06:34:34;1.13;;;0.80;;
24663;SDS011;12791;50.992;13.788;2024-03-29T06:37:01;1.05;;;0.60;;
24663;SDS011;12791;50.992;13.788;2024-03-29T06:39:28;1.85;;;0.70;;
24663;SDS011;12791;50.992;13.788;2024-03-29T06:41:56;2.38;;;0.50;;
24663;SDS011;12791;50.992;13.788;2024-03-29T06:44:23;0.93;;;0.60;;
24663;SDS011;12791;50.992;13.788;2024-03-29T06:46:50;1.23;;;0.60;;
24663;SDS011;12791;50.992;13.788;2024-03-29T06:49:17;1.13;;;0.60;;
24663;SDS011;12791;50.992;13.788;2024-03-29T06:51:43;0.80;;;0.63;;
24663;SDS011;12791;50.992;13.788;2024-03-29T06:54:10;1.30;;;0.68;;
24663;SDS011;12791;50.992;13.788;2024-03-29T06:56:37;2.65;;;0.63;;
24663;SDS011;12791;50.992;13.788;2024-03-29T06:59:05;1.70;;;0.80;;
24663;SDS011;12791;50.992;13.788;2024-03-29T07:01:31;1.50;;;0.80;;
24663;SDS011;12791;50.992;13.788;2024-03-29T07:03:58;1.63;;;0.68;;
24663;SDS011;12791;50.992;13.788;2024-03-29T07:06:24;3.50;;;0.77;;
24663;SDS011;12791;50.992;13.788;2024-03-29T07:08:51;1.90;;;1.00;;
24663;SDS011;12791;50.992;13.788;2024-03-29T07:11:18;0.75;;;0.60;;
24663;SDS011;12791;50.992;13.788;2024-03-29T07:13:44;4.28;;;1.13;;
24663;SDS011;12791;50.992;13.788;2024-03-29T07:16:13;1.83;;;0.70;;
24663;SDS011;12791;50.992;13.788;2024-03-29T07:18:39;1.50;;;0.70;;
24663;SDS011;12791;50.992;13.788;2024-03-29T07:21:06;1.10;;;1.00;;
24663;SDS011;12791;50.992;13.788;2024-03-29T07:23:33;0.98;;;0.60;;
24663;SDS011;12791;50.992;13.788;2024-03-29T07:26:00;0.50;;;0.50;;
24663;SDS011;12791;50.992;13.788;2024-03-29T07:28:28;1.70;;;0.70;;
24663;SDS011;12791;50.992;13.788;2024-03-29T07:30:55;0.80;;;0.80;;
24663;SDS011;12791;50.992;13.788;2024-03-29T07:33:24;1.20;;;0.60;;
24663;SDS011;12791;50.992;13.788;2024-03-29T07:35:52;0.93;;;0.55;;
24663;SDS011;12791;50.992;13.788;2024-03-29T07:38:19;1.63;;;0.93;;
24663;SDS011;12791;50.992;13.788;2024-03-29T07:40:46;1.33;;;0.60;;
24663;SDS011;12791;50.992;13.788;2024-03-29T07:43:13;1.85;;;0.88;;
24663;SDS011;12791;50.992;13.788;2024-03-29T07:45:40;1.17;;;0.60;;
24663;SDS011;12791;50.992;13.788;2024-03-29T07:48:11;0.75;;;0.60;;
24663;SDS011;12791;50.992;13.788;2024-03-29T07:50:39;1.48;;;0.70;;
24663;SDS011;12791;50.992;13.788;2024-03-29T07:53:06;1.60;;;0.70;;
24663;SDS011;12791;50.992;13.788;2024-03-29T07:55:34;1.52;;;0.70;;
24663;SDS011;12791;50.992;13.788;2024-03-29T07:58:01;0.98;;;0.68;;
24663;SDS011;12791;50.992;13.788;2024-03-29T08:00:30;2.38;;;1.08;;
24663;SDS011;12791;50.992;13.788;2024-03-29T08:02:58;2.22;;;0.90;;
24663;SDS011;12791;50.992;13.788;2024-03-29T08:05:24;1.30;;;0.70;;
24663;SDS011;12791;50.992;13.788;2024-03-29T08:07:53;1.63;;;0.75;;
24663;SDS011;12791;50.992;13.788;2024-03-29T08:10:20;0.82;;;0.82;;
24663;SDS011;12791;50.992;13.788;2024-03-29T08:12:47;0.70;;;0.70;;
24663;SDS011;12791;50.992;13.788;2024-03-29T08:15:14;0.60;;;0.60;;
24663;SDS011;12791;50.992;13.788;2024-03-29T08:17:43;2.50;;;1.20;;
24663;SDS011;12791;50.992;13.788;2024-03-29T08:20:10;2.50;;;0.80;;
24663;SDS011;12791;50.992;13.788;2024-03-29T08:22:36;0.60;;;0.60;;
24663;SDS011;12791;50.992;13.788;2024-03-29T08:25:05;1.83;;;0.47;;
24663;SDS011;12791;50.992;13.788;2024-03-29T08:27:31;0.30;;;0.30;;
24663;SDS011;12791;50.992;13.788;2024-03-29T08:29:59;0.50;;;0.30;;
24663;SDS011;12791;50.992;13.788;2024-03-29T08:32:25;0.47;;;0.40;;
24663;SDS011;12791;50.992;13.788;2024-03-29T08:34:52;2.08;;;0.70;;
24663;SDS011;12791;50.992;13.788;2024-03-29T08:37:19;0.68;;;0.40;;
24663;SDS011;12791;50.992;13.788;2024-03-29T08:39:45;0.75;;;0.30;;
24663;SDS011;12791;50.992;13.788;2024-03-29T08:42:12;2.05;;;0.38;;
24663;SDS011;12791;50.992;13.788;2024-03-29T08:44:39;0.35;;;0.30;;
24663;SDS011;12791;50.992;13.788;2024-03-29T08:47:06;0.75;;;0.40;;
24663;SDS011;12791;50.992;13.788;2024-03-29T08:49:33;0.95;;;0.32;;
24663;SDS011;12791;50.992;13.788;2024-03-29T08:52:00;1.55;;;0.40;;
24663;SDS011;12791;50.992;13.788;2024-03-29T08:54:30;0.30;;;0.20;;
24663;SDS011;12791;50.992;13.788;2024-03-29T08:56:57;0.35;;;0.22;;
24663;SDS011;12791;50.992;13.788;2024-03-29T08:59:25;1.60;;;0.55;;
24663;SDS011;12791;50.992;13.788;2024-03-29T09:01:52;1.60;;;0.70;;
24663;SDS011;12791;50.992;13.788;2024-03-29T09:04:19;1.08;;;0.60;;
24663;SDS011;12791;50.992;13.788;2024-03-29T09:06:46;0.60;;;0.43;;
24663;SDS011;12791;50.992;13.788;2024-03-29T09:09:12;0.70;;;0.40;;
24663;SDS011;12791;50.992;13.788;2024-03-29T09:11:39;0.88;;;0.40;;
24663;SDS011;12791;50.992;13.788;2024-03-29T09:14:06;0.43;;;0.38;;
24663;SDS011;12791;50.992;13.788;2024-03-29T09:16:36;2.50;;;0.30;;
24663;SDS011;12791;50.992;13.788;2024-03-29T09:19:02;0.68;;;0.40;;
24663;SDS011;12791;50.992;13.788;2024-03-29T09:21:30;1.38;;;0.40;;
24663;SDS011;12791;50.992;13.788;2024-03-29T09:23:56;1.70;;;0.40;;
24663;SDS011;12791;50.992;13.788;2024-03-29T09:26:23;0.85;;;0.50;;
24663;SDS011;12791;50.992;13.788;2024-03-29T09:28:49;1.95;;;0.40;;
24663;SDS011;12791;50.992;13.788;2024-03-29T09:31:16;0.68;;;0.40;;
24663;SDS011;12791;50.992;13.788;2024-03-29T09:33:45;1.02;;;0.50;;
24663;SDS011;12791;50.992;13.788;2024-03-29T09:36:12;1.30;;;0.40;;
24663;SDS011;12791;50.992;13.788;2024-03-29T09:38:40;1.08;;;0.50;;
24663;SDS011;12791;50.992;13.788;2024-03-29T09:41:07;0.30;;;0.30;;
24663;SDS011;12791;50.992;13.788;2024-03-29T09:43:39;0.73;;;0.40;;
24663;SDS011;12791;50.992;13.788;2024-03-29T09:46:10;1.55;;;0.50;;
24663;SDS011;12791;50.992;13.788;2024-03-29T09:48:37;0.73;;;0.40;;
24663;SDS011;12791;50.992;13.788;2024-03-29T09:51:06;0.98;;;0.50;;
24663;SDS011;12791;50.992;13.788;2024-03-29T09:53:34;1.63;;;0.40;;
24663;SDS011;12791;50.992;13.788;2024-03-29T09:56:02;2.42;;;0.52;;
24663;SDS011;12791;50.992;13.788;2024-03-29T09:58:30;1.40;;;0.40;;
24663;SDS011;12791;50.992;13.788;2024-03-29T10:00:56;1.13;;;0.50;;
24663;SDS011;12791;50.992;13.788;2024-03-29T10:03:23;1.25;;;0.60;;
24663;SDS011;12791;50.992;13.788;2024-03-29T10:05:54;2.15;;;0.50;;
24663;SDS011;12791;50.992;13.788;2024-03-29T10:08:22;1.00;;;0.50;;
24663;SDS011;12791;50.992;13.788;2024-03-29T10:10:49;0.98;;;0.47;;
24663;SDS011;12791;50.992;13.788;2024-03-29T10:13:17;1.55;;;0.60;;
24663;SDS011;12791;50.992;13.788;2024-03-29T10:15:43;1.42;;;0.50;;
24663;SDS011;12791;50.992;13.788;2024-03-29T10:18:14;1.30;;;0.55;;
24663;SDS011;12791;50.992;13.788;2024-03-29T10:20:42;2.05;;;0.90;;
24663;SDS011;12791;50.992;13.788;2024-03-29T10:23:09;1.17;;;0.68;;
24663;SDS011;12791;50.992;13.788;2024-03-29T10:25:37;1.55;;;1.10;;
24663;SDS011;12791;50.992;13.788;2024-03-29T10:28:05;2.50;;;0.80;;
24663;SDS011;12791;50.992;13.788;2024-03-29T10:30:31;2.10;;;0.90;;
24663;SDS011;12791;50.992;13.788;2024-03-29T10:33:00;1.38;;;0.50;;
24663;SDS011;12791;50.992;13.788;2024-03-29T10:35:26;0.50;;;0.50;;
24663;SDS011;12791;50.992;13.788;2024-03-29T10:37:53;0.40;;;0.40;;
24663;SDS011;12791;50.992;13.788;2024-03-29T10:40:20;0.35;;;0.35;;
24663;SDS011;12791;50.992;13.788;2024-03-29T10:42:50;2.03;;;0.50;;
24663;SDS011;12791;50.992;13.788;2024-03-29T10:45:18;0.95;;;0.40;;
24663;SDS011;12791;50.992;13.788;2024-03-29T10:47:48;2.38;;;0.40;;
24663;SDS011;12791;50.992;13.788;2024-03-29T10:50:18;1.42;;;0.50;;
24663;SDS011;12791;50.992;13.788;2024-03-29T10:52:48;1.40;;;0.50;;
24663;SDS011;12791;50.992;13.788;2024-03-29T10:55:15;1.52;;;0.50;;
24663;SDS011;12791;50.992;13.788;2024-03-29T10:57:42;1.52;;;0.50;;
24663;SDS011;12791;50.992;13.788;2024-03-29T11:00:13;1.38;;;0.40;;
24663;SDS011;12791;50.992;13.788;2024-03-29T11:02:46;2.22;;;0.60;;
24663;SDS011;12791;50.992;13.788;2024-03-29T11:05:16;0.90;;;0.40;;
24663;SDS011;12791;50.992;13.788;2024-03-29T11:07:44;0.88;;;0.40;;
24663;SDS011;12791;50.992;13.788;2024-03-29T11:10:13;0.60;;;0.50;;
24663;SDS011;12791;50.992;13.788;2024-03-29T11:12:45;1.15;;;0.50;;
24663;SDS011;12791;50.992;13.788;2024-03-29T11:15:30;0.88;;;0.40;;
24663;SDS011;12791;50.992;13.788;2024-03-29T11:17:58;2.22;;;0.60;;
24663;SDS011;12791;50.992;13.788;2024-03-29T11:20:25;1.40;;;0.60;;
24663;SDS011;12791;50.992;13.788;2024-03-29T11:23:00;1.83;;;0.60;;
24663;SDS011;12791;50.992;13.788;2024-03-29T11:25:37;0.73;;;0.50;;
24663;SDS011;12791;50.992;13.788;2024-03-29T11:28:07;1.63;;;0.80;;
24663;SDS011;12791;50.992;13.788;2024-03-29T11:30:42;0.70;;;0.60;;
24663;SDS011;12791;50.992;13.788;2024-03-29T11:33:30;1.20;;;0.63;;
24663;SDS011;12791;50.992;13.788;2024-03-29T11:35:58;2.20;;;0.50;;
24663;SDS011;12791;50.992;13.788;2024-03-29T11:38:30;1.05;;;0.60;;
24663;SDS011;12791;50.992;13.788;2024-03-29T11:41:04;0.85;;;0.40;;
24663;SDS011;12791;50.992;13.788;2024-03-29T11:43:31;0.65;;;0.52;;
24663;SDS011;12791;50.992;13.788;2024-03-29T11:46:00;1.70;;;0.52;;
24663;SDS011;12791;50.992;13.788;2024-03-29T11:48:28;1.25;;;0.60;;
24663;SDS011;12791;50.992;13.788;2024-03-29T11:50:57;0.43;;;0.40;;
24663;SDS011;12791;50.992;13.788;2024-03-29T11:53:24;1.67;;;0.50;;
24663;SDS011;12791;50.992;13.788;2024-03-29T11:55:52;2.40;;;0.60;;
24663;SDS011;12791;50.992;13.788;2024-03-29T11:58:20;1.98;;;0.60;;
24663;SDS011;12791;50.992;13.788;2024-03-29T12:00:48;0.95;;;0.40;;
24663;SDS011;12791;50.992;13.788;2024-03-29T12:03:17;0.98;;;0.45;;
24663;SDS011;12791;50.992;13.788;2024-03-29T12:05:45;1.38;;;0.40;;
24663;SDS011;12791;50.992;13.788;2024-03-29T12:08:13;1.45;;;0.52;;
24663;SDS011;12791;50.992;13.788;2024-03-29T12:10:40;3.45;;;0.90;;
24663;SDS011;12791;50.992;13.788;2024-03-29T12:13:08;1.05;;;0.68;;
24663;SDS011;12791;50.992;13.788;2024-03-29T12:15:35;2.03;;;0.70;;
24663;SDS011;12791;50.992;13.788;2024-03-29T12:18:02;2.00;;;0.60;;
24663;SDS011;12791;50.992;13.788;2024-03-29T12:20:32;1.60;;;0.70;;
24663;SDS011;12791;50.992;13.788;2024-03-29T12:23:00;0.70;;;0.50;;
24663;SDS011;12791;50.992;13.788;2024-03-29T12:25:27;1.10;;;0.50;;
24663;SDS011;12791;50.992;13.788;2024-03-29T12:27:54;1.20;;;0.60;;
24663;SDS011;12791;50.992;13.788;2024-03-29T12:30:21;3.85;;;0.80;;
24663;SDS011;12791;50.992;13.788;2024-03-29T12:32:48;1.48;;;0.50;;
24663;SDS011;12791;50.992;13.788;2024-03-29T12:35:26;1.42;;;0.73;;
24663;SDS011;12791;50.992;13.788;2024-03-29T12:37:55;0.90;;;0.50;;
24663;SDS011;12791;50.992;13.788;2024-03-29T12:40:25;0.80;;;0.45;;
24663;SDS011;12791;50.992;13.788;2024-03-29T12:42:53;0.63;;;0.47;;
24663;SDS011;12791;50.992;13.788;2024-03-29T12:45:21;0.55;;;0.40;;
24663;SDS011;12791;50.992;13.788;2024-03-29T12:47:48;1.20;;;0.50;;
24663;SDS011;12791;50.992;13.788;2024-03-29T12:50:18;1.30;;;0.60;;
24663;SDS011;12791;50.992;13.788;2024-03-29T12:52:50;1.27;;;0.50;;
24663;SDS011;12791;50.992;13.788;2024-03-29T12:55:22;1.30;;;0.77;;
24663;SDS011;12791;50.992;13.788;2024-03-29T12:57:49;1.88;;;0.40;;
24663;SDS011;12791;50.992;13.788;2024-03-29T13:00:18;1.35;;;0.40;;
24663;SDS011;12791;50.992;13.788;2024-03-29T13:02:45;0.68;;;0.40;;
24663;SDS011;12791;50.992;13.788;2024-03-29T13:05:12;0.50;;;0.30;;
24663;SDS011;12791;50.992;13.788;2024-03-29T13:07:38;0.30;;;0.30;;
24663;SDS011;12791;50.992;13.788;2024-03-29T13:10:07;0.50;;;0.30;;
24663;SDS011;12791;50.992;13.788;2024-03-29T13:12:38;1.67;;;0.35;;
24663;SDS011;12791;50.992;13.788;2024-03-29T13:15:14;0.40;;;0.30;;
24663;SDS011;12791;50.992;13.788;2024-03-29T13:17:42;0.47;;;0.30;;
24663;SDS011;12791;50.992;13.788;2024-03-29T13:20:11;0.60;;;0.30;;
24663;SDS011;12791;50.992;13.788;2024-03-29T13:22:38;1.17;;;0.20;;
24663;SDS011;12791;50.992;13.788;2024-03-29T13:25:08;0.70;;;0.30;;
24663;SDS011;12791;50.992;13.788;2024-03-29T13:27:35;0.30;;;0.30;;
24663;SDS011;12791;50.992;13.788;2024-03-29T13:30:03;0.52;;;0.20;;
24663;SDS011;12791;50.992;13.788;2024-03-29T13:32:30;0.25;;;0.25;;
24663;SDS011;12791;50.992;13.788;2024-03-29T13:34:58;0.45;;;0.35;;
24663;SDS011;12791;50.992;13.788;2024-03-29T13:37:25;0.30;;;0.30;;
24663;SDS011;12791;50.992;13.788;2024-03-29T13:39:52;1.02;;;0.30;;
24663;SDS011;12791;50.992;13.788;2024-03-29T13:42:20;1.33;;;0.32;;
24663;SDS011;12791;50.992;13.788;2024-03-29T13:44:49;1.38;;;0.20;;
24663;SDS011;12791;50.992;13.788;2024-03-29T13:47:15;0.28;;;0.20;;
24663;SDS011;12791;50.992;13.788;2024-03-29T13:49:43;0.20;;;0.20;;
24663;SDS011;12791;50.992;13.788;2024-03-29T13:52:10;0.32;;;0.20;;
24663;SDS011;12791;50.992;13.788;2024-03-29T13:54:37;0.25;;;0.25;;
24663;SDS011;12791;50.992;13.788;2024-03-29T13:57:08;0.85;;;0.50;;
24663;SDS011;12791;50.992;13.788;2024-03-29T13:59:36;1.17;;;0.60;;
24663;SDS011;12791;50.992;13.788;2024-03-29T14:02:03;0.52;;;0.50;;
24663;SDS011;12791;50.992;13.788;2024-03-29T14:04:30;1.50;;;1.40;;
24663;SDS011;12791;50.992;13.788;2024-03-29T14:06:57;1.55;;;0.80;;
24663;SDS011;12791;50.992;13.788;2024-03-29T14:09:24;0.80;;;0.60;;
24663;SDS011;12791;50.992;13.788;2024-03-29T14:11:50;1.08;;;0.57;;
24663;SDS011;12791;50.992;13.788;2024-03-29T14:14:18;0.80;;;0.40;;
24663;SDS011;12791;50.992;13.788;2024-03-29T14:16:46;3.70;;;0.50;;
24663;SDS011;12791;50.992;13.788;2024-03-29T14:19:13;0.60;;;0.38;;
24663;SDS011;12791;50.992;13.788;2024-03-29T14:21:39;0.75;;;0.50;;
24663;SDS011;12791;50.992;13.788;2024-03-29T14:24:06;1.27;;;0.68;;
24663;SDS011;12791;50.992;13.788;2024-03-29T14:26:33;0.45;;;0.45;;
24663;SDS011;12791;50.992;13.788;2024-03-29T14:29:00;1.10;;;0.43;;
24663;SDS011;12791;50.992;13.788;2024-03-29T14:31:26;0.40;;;0.40;;
24663;SDS011;12791;50.992;13.788;2024-03-29T14:33:54;0.52;;;0.40;;
24663;SDS011;12791;50.992;13.788;2024-03-29T14:36:21;0.60;;;0.50;;
24663;SDS011;12791;50.992;13.788;2024-03-29T14:38:48;1.15;;;0.50;;
24663;SDS011;12791;50.992;13.788;2024-03-29T14:41:15;0.52;;;0.40;;
24663;SDS011;12791;50.992;13.788;2024-03-29T14:43:41;0.68;;;0.40;;
24663;SDS011;12791;50.992;13.788;2024-03-29T14:46:09;0.40;;;0.40;;
24663;SDS011;12791;50.992;13.788;2024-03-29T14:48:35;0.73;;;0.40;;
24663;SDS011;12791;50.992;13.788;2024-03-29T14:51:03;1.17;;;0.55;;
24663;SDS011;12791;50.992;13.788;2024-03-29T14:53:30;0.30;;;0.30;;
24663;SDS011;12791;50.992;13.788;2024-03-29T14:55:57;0.40;;;0.40;;
24663;SDS011;12791;50.992;13.788;2024-03-29T14:58:27;0.32;;;0.32;;
24663;SDS011;12791;50.992;13.788;2024-03-29T15:00:53;0.30;;;0.30;;
24663;SDS011;12791;50.992;13.788;2024-03-29T15:03:20;0.63;;;0.30;;
24663;SDS011;12791;50.992;13.788;2024-03-29T15:05:47;0.30;;;0.30;;
24663;SDS011;12791;50.992;13.788;2024-03-29T15:08:15;0.20;;;0.20;;
24663;SDS011;12791;50.992;13.788;2024-03-29T15:10:42;1.38;;;0.40;;
24663;SDS011;12791;50.992;13.788;2024-03-29T15:13:09;0.40;;;0.40;;
24663;SDS011;12791;50.992;13.788;2024-03-29T15:15:36;0.88;;;0.30;;
24663;SDS011;12791;50.992;13.788;2024-03-29T15:18:03;0.30;;;0.30;;
24663;SDS011;12791;50.992;13.788;2024-03-29T15:20:29;0.75;;;0.38;;
24663;SDS011;12791;50.992;13.788;2024-03-29T15:22:55;0.73;;;0.43;;
24663;SDS011;12791;50.992;13.788;2024-03-29T15:25:25;1.20;;;0.50;;
24663;SDS011;12791;50.992;13.788;2024-03-29T15:27:51;0.28;;;0.28;;
24663;SDS011;12791;50.992;13.788;2024-03-29T15:30:35;0.45;;;0.45;;
24663;SDS011;12791;50.992;13.788;2024-03-29T15:33:06;1.67;;;0.57;;
24663;SDS011;12791;50.992;13.788;2024-03-29T15:35:32;0.60;;;0.40;;
24663;SDS011;12791;50.992;13.788;2024-03-29T15:37:59;0.45;;;0.35;;
24663;SDS011;12791;50.992;13.788;2024-03-29T15:40:30;1.00;;;0.50;;
24663;SDS011;12791;50.992;13.788;2024-03-29T15:42:57;0.75;;;0.40;;
24663;SDS011;12791;50.992;13.788;2024-03-29T15:45:23;0.93;;;0.40;;
24663;SDS011;12791;50.992;13.788;2024-03-29T15:47:50;0.85;;;0.50;;
24663;SDS011;12791;50.992;13.788;2024-03-29T15:50:16;0.40;;;0.40;;
24663;SDS011;12791;50.992;13.788;2024-03-29T15:52:43;0.65;;;0.40;;
24663;SDS011;12791;50.992;13.788;2024-03-29T15:55:10;0.40;;;0.40;;
24663;SDS011;12791;50.992;13.788;2024-03-29T15:57:38;0.30;;;0.30;;
24663;SDS011;12791;50.992;13.788;2024-03-29T16:00:06;0.68;;;0.50;;
24663;SDS011;12791;50.992;13.788;2024-03-29T16:02:37;0.50;;;0.43;;
24663;SDS011;12791;50.992;13.788;2024-03-29T16:05:12;0.57;;;0.50;;
24663;SDS011;12791;50.992;13.788;2024-03-29T16:07:39;0.65;;;0.50;;
24663;SDS011;12791;50.992;13.788;2024-03-29T16:10:06;0.60;;;0.60;;
24663;SDS011;12791;50.992;13.788;2024-03-29T16:12:33;0.95;;;0.85;;
24663;SDS011;12791;50.992;13.788;2024-03-29T16:15:01;1.30;;;0.93;;
24663;SDS011;12791;50.992;13.788;2024-03-29T16:17:28;3.75;;;1.60;;
24663;SDS011;12791;50.992;13.788;2024-03-29T16:19:54;3.53;;;2.15;;
24663;SDS011;12791;50.992;13.788;2024-03-29T16:22:21;2.55;;;2.22;;
24663;SDS011;12791;50.992;13.788;2024-03-29T16:24:46;2.88;;;2.50;;
24663;SDS011;12791;50.992;13.788;2024-03-29T16:27:13;1.42;;;1.30;;
24663;SDS011;12791;50.992;13.788;2024-03-29T16:29:39;0.88;;;0.88;;
24663;SDS011;12791;50.992;13.788;2024-03-29T16:32:07;0.98;;;0.70;;
24663;SDS011;12791;50.992;13.788;2024-03-29T16:34:34;0.90;;;0.90;;
24663;SDS011;12791;50.992;13.788;2024-03-29T16:37:01;1.65;;;0.80;;
24663;SDS011;12791;50.992;13.788;2024-03-29T16:39:27;1.13;;;0.70;;
24663;SDS011;12791;50.992;13.788;2024-03-29T16:41:54;1.42;;;0.90;;
24663;SDS011;12791;50.992;13.788;2024-03-29T16:44:21;0.90;;;0.77;;
24663;SDS011;12791;50.992;13.788;2024-03-29T16:46:48;1.08;;;0.90;;
24663;SDS011;12791;50.992;13.788;2024-03-29T16:49:15;0.95;;;0.90;;
24663;SDS011;12791;50.992;13.788;2024-03-29T16:51:42;0.82;;;0.82;;
24663;SDS011;12791;50.992;13.788;2024-03-29T16:54:08;1.58;;;0.90;;
24663;SDS011;12791;50.992;13.788;2024-03-29T16:56:35;1.40;;;0.75;;
24663;SDS011;12791;50.992;13.788;2024-03-29T16:59:00;1.17;;;0.90;;
24663;SDS011;12791;50.992;13.788;2024-03-29T17:01:28;1.23;;;0.80;;
24663;SDS011;12791;50.992;13.788;2024-03-29T17:03:54;3.28;;;1.00;;
24663;SDS011;12791;50.992;13.788;2024-03-29T17:06:22;1.38;;;0.90;;
24663;SDS011;12791;50.992;13.788;2024-03-29T17:08:48;1.20;;;0.85;;
24663;SDS011;12791;50.992;13.788;2024-03-29T17:11:15;0.95;;;0.70;;
24663;SDS011;12791;50.992;13.788;2024-03-29T17:13:41;2.15;;;0.80;;
24663;SDS011;12791;50.992;13.788;2024-03-29T17:16:07;1.25;;;1.00;;
24663;SDS011;12791;50.992;13.788;2024-03-29T17:18:33;1.55;;;1.42;;
24663;SDS011;12791;50.992;13.788;2024-03-29T17:21:00;2.50;;;0.80;;
24663;SDS011;12791;50.992;13.788;2024-03-29T17:23:27;1.20;;;0.90;;
24663;SDS011;12791;50.992;13.788;2024-03-29T17:25:53;1.30;;;1.05;;
24663;SDS011;12791;50.992;13.788;2024-03-29T17:28:19;1.33;;;0.98;;
24663;SDS011;12791;50.992;13.788;2024-03-29T17:30:46;2.97;;;1.40;;
24663;SDS011;12791;50.992;13.788;2024-03-29T17:33:12;2.05;;;1.33;;
24663;SDS011;12791;50.992;13.788;2024-03-29T17:35:38;3.05;;;1.83;;
24663;SDS011;12791;50.992;13.788;2024-03-29T17:38:04;1.83;;;1.73;;
24663;SDS011;12791;50.992;13.788;2024-03-29T17:40:32;3.40;;;1.98;;
24663;SDS011;12791;50.992;13.788;2024-03-29T17:42:58;2.35;;;2.15;;
24663;SDS011;12791;50.992;13.788;2024-03-29T17:45:25;2.40;;;2.20;;
24663;SDS011;12791;50.992;13.788;2024-03-29T17:47:51;3.05;;;2.00;;
24663;SDS011;12791;50.992;13.788;2024-03-29T17:50:17;2.85;;;1.90;;
24663;SDS011;12791;50.992;13.788;2024-03-29T17:52:43;2.22;;;2.03;;
24663;SDS011;12791;50.992;13.788;2024-03-29T17:55:10;2.90;;;2.08;;
24663;SDS011;12791;50.992;13.788;2024-03-29T17:57:37;2.42;;;2.22;;
24663;SDS011;12791;50.992;13.788;2024-03-29T18:00:04;2.20;;;2.00;;
24663;SDS011;12791;50.992;13.788;2024-03-29T18:02:33;2.40;;;2.20;;
24663;SDS011;12791;50.992;13.788;2024-03-29T18:05:00;4.38;;;2.63;;
24663;SDS011;12791;50.992;13.788;2024-03-29T18:07:26;3.72;;;2.67;;
24663;SDS011;12791;50.992;13.788;2024-03-29T18:09:52;3.72;;;2.40;;
24663;SDS011;12791;50.992;13.788;2024-03-29T18:12:18;2.97;;;2.75;;
24663;SDS011;12791;50.992;13.788;2024-03-29T18:14:46;4.55;;;3.15;;
24663;SDS011;12791;50.992;13.788;2024-03-29T18:17:12;3.10;;;2.80;;
24663;SDS011;12791;50.992;13.788;2024-03-29T18:19:39;6.63;;;3.72;;
24663;SDS011;12791;50.992;13.788;2024-03-29T18:22:05;3.22;;;2.92;;
24663;SDS011;12791;50.992;13.788;2024-03-29T18:24:31;4.93;;;2.50;;
24663;SDS011;12791;50.992;13.788;2024-03-29T18:26:57;4.28;;;2.50;;
24663;SDS011;12791;50.992;13.788;2024-03-29T18:29:23;2.20;;;2.10;;
24663;SDS011;12791;50.992;13.788;2024-03-29T18:31:50;3.47;;;2.20;;
24663;SDS011;12791;50.992;13.788;2024-03-29T18:34:17;3.35;;;2.88;;
24663;SDS011;12791;50.992;13.788;2024-03-29T18:36:43;6.07;;;4.32;;
24663;SDS011;12791;50.992;13.788;2024-03-29T18:39:12;6.32;;;4.40;;
24663;SDS011;12791;50.992;13.788;2024-03-29T18:41:38;6.57;;;3.90;;
24663;SDS011;12791;50.992;13.788;2024-03-29T18:44:05;4.50;;;3.85;;
24663;SDS011;12791;50.992;13.788;2024-03-29T18:46:30;7.28;;;4.07;;
24663;SDS011;12791;50.992;13.788;2024-03-29T18:48:58;3.83;;;2.88;;
24663;SDS011;12791;50.992;13.788;2024-03-29T18:51:24;2.80;;;2.55;;
24663;SDS011;12791;50.992;13.788;2024-03-29T18:53:50;3.80;;;3.40;;
24663;SDS011;12791;50.992;13.788;2024-03-29T18:56:17;5.90;;;4.97;;
24663;SDS011;12791;50.992;13.788;2024-03-29T18:58:43;4.22;;;3.20;;
24663;SDS011;12791;50.992;13.788;2024-03-29T19:01:10;6.15;;;5.20;;
24663;SDS011;12791;50.992;13.788;2024-03-29T19:03:37;8.85;;;7.18;;
24663;SDS011;12791;50.992;13.788;2024-03-29T19:06:07;8.23;;;6.32;;
24663;SDS011;12791;50.992;13.788;2024-03-29T19:08:32;6.18;;;5.47;;
24663;SDS011;12791;50.992;13.788;2024-03-29T19:10:59;7.25;;;6.55;;
24663;SDS011;12791;50.992;13.788;2024-03-29T19:13:25;8.30;;;6.57;;
24663;SDS011;12791;50.992;13.788;2024-03-29T19:15:52;8.43;;;6.28;;
24663;SDS011;12791;50.992;13.788;2024-03-29T19:18:17;7.75;;;6.53;;
24663;SDS011;12791;50.992;13.788;2024-03-29T19:20:44;6.30;;;5.70;;
24663;SDS011;12791;50.992;13.788;2024-03-29T19:23:12;6.97;;;5.90;;
24663;SDS011;12791;50.992;13.788;2024-03-29T19:25:38;11.45;;;7.63;;
24663;SDS011;12791;50.992;13.788;2024-03-29T19:28:04;6.25;;;5.40;;
24663;SDS011;12791;50.992;13.788;2024-03-29T19:30:31;5.15;;;4.65;;
24663;SDS011;12791;50.992;13.788;2024-03-29T19:32:58;6.20;;;4.60;;
24663;SDS011;12791;50.992;13.788;2024-03-29T19:35:25;4.85;;;4.45;;